sensor_id;sensor_type;location;lat;lon;timestamp;temperature;humidity
16038;DHT22;8123;50.906;6.172;2023-06-22T00:01:10;20.40;99.90
16038;DHT22;8123;50.906;6.172;2023-06-22T00:03:35;20.40;99.90
16038;DHT22;8123;50.906;6.172;2023-06-22T00:06:01;20.40;99.90
16038;DHT22;8123;50.906;6.172;2023-06-22T00:08:27;20.40;99.90
16038;DHT22;8123;50.906;6.172;2023-06-22T00:10:52;20.30;99.90
16038;DHT22;8123;50.906;6.172;2023-06-22T00:13:18;20.30;99.90
16038;DHT22;8123;50.906;6.172;2023-06-22T00:15:43;20.20;99.90
16038;DHT22;8123;50.906;6.172;2023-06-22T00:18:10;20.20;99.90
16038;DHT22;8123;50.906;6.172;2023-06-22T00:20:37;20.20;99.90
16038;DHT22;8123;50.906;6.172;2023-06-22T00:23:04;20.20;99.90
16038;DHT22;8123;50.906;6.172;2023-06-22T00:25:39;20.10;99.90
16038;DHT22;8123;50.906;6.172;2023-06-22T00:28:08;20.10;99.90
16038;DHT22;8123;50.906;6.172;2023-06-22T00:30:34;20.10;99.90
16038;DHT22;8123;50.906;6.172;2023-06-22T00:33:00;20.10;99.90
16038;DHT22;8123;50.906;6.172;2023-06-22T00:35:27;20.00;99.90
16038;DHT22;8123;50.906;6.172;2023-06-22T00:37:58;20.10;99.90
16038;DHT22;8123;50.906;6.172;2023-06-22T00:40:28;20.10;99.90
16038;DHT22;8123;50.906;6.172;2023-06-22T00:42:55;20.10;99.90
16038;DHT22;8123;50.906;6.172;2023-06-22T00:45:22;20.10;99.90
16038;DHT22;8123;50.906;6.172;2023-06-22T00:47:50;20.10;99.90
16038;DHT22;8123;50.906;6.172;2023-06-22T00:50:23;20.10;99.90
16038;DHT22;8123;50.906;6.172;2023-06-22T00:52:55;20.10;99.90
16038;DHT22;8123;50.906;6.172;2023-06-22T00:55:22;20.20;99.90
16038;DHT22;8123;50.906;6.172;2023-06-22T00:57:48;20.20;63.70
16038;DHT22;8123;50.906;6.172;2023-06-22T01:00:18;20.20;99.90
16038;DHT22;8123;50.906;6.172;2023-06-22T01:02:45;20.20;99.90
16038;DHT22;8123;50.906;6.172;2023-06-22T01:05:13;20.20;29.90
16038;DHT22;8123;50.906;6.172;2023-06-22T01:13:37;20.10;99.90
16038;DHT22;8123;50.906;6.172;2023-06-22T01:16:19;20.10;99.90
16038;DHT22;8123;50.906;6.172;2023-06-22T01:18:48;20.10;99.90
16038;DHT22;8123;50.906;6.172;2023-06-22T01:21:18;20.20;99.90
16038;DHT22;8123;50.906;6.172;2023-06-22T01:26:54;20.10;99.90
16038;DHT22;8123;50.906;6.172;2023-06-22T01:29:24;20.10;99.90
16038;DHT22;8123;50.906;6.172;2023-06-22T01:31:52;20.00;99.90
16038;DHT22;8123;50.906;6.172;2023-06-22T01:34:20;20.00;99.90
16038;DHT22;8123;50.906;6.172;2023-06-22T01:36:46;20.10;99.90
16038;DHT22;8123;50.906;6.172;2023-06-22T01:39:13;20.00;99.90
16038;DHT22;8123;50.906;6.172;2023-06-22T01:41:39;20.10;99.90
16038;DHT22;8123;50.906;6.172;2023-06-22T01:44:08;20.10;99.90
16038;DHT22;8123;50.906;6.172;2023-06-22T01:46:36;20.00;99.90
16038;DHT22;8123;50.906;6.172;2023-06-22T01:49:04;20.20;99.90
16038;DHT22;8123;50.906;6.172;2023-06-22T01:51:30;20.10;99.90
16038;DHT22;8123;50.906;6.172;2023-06-22T01:53:56;20.10;99.90
16038;DHT22;8123;50.906;6.172;2023-06-22T01:56:21;20.10;99.90
16038;DHT22;8123;50.906;6.172;2023-06-22T01:59:15;20.10;99.90
16038;DHT22;8123;50.906;6.172;2023-06-22T02:01:45;20.10;99.90
16038;DHT22;8123;50.906;6.172;2023-06-22T02:04:24;20.00;99.90
16038;DHT22;8123;50.906;6.172;2023-06-22T02:06:55;20.10;1.00
16038;DHT22;8123;50.906;6.172;2023-06-22T02:09:22;20.00;1.00
16038;DHT22;8123;50.906;6.172;2023-06-22T02:11:51;20.00;1.00
16038;DHT22;8123;50.906;6.172;2023-06-22T02:14:19;20.00;1.00
16038;DHT22;8123;50.906;6.172;2023-06-22T02:16:46;20.00;1.00
16038;DHT22;8123;50.906;6.172;2023-06-22T02:19:11;20.00;1.00
16038;DHT22;8123;50.906;6.172;2023-06-22T02:21:37;20.10;1.00
16038;DHT22;8123;50.906;6.172;2023-06-22T02:24:04;20.00;1.00
16038;DHT22;8123;50.906;6.172;2023-06-22T02:26:30;20.10;1.00
16038;DHT22;8123;50.906;6.172;2023-06-22T02:28:57;20.00;1.00
16038;DHT22;8123;50.906;6.172;2023-06-22T02:31:22;20.00;1.00
16038;DHT22;8123;50.906;6.172;2023-06-22T02:33:57;20.00;1.00
16038;DHT22;8123;50.906;6.172;2023-06-22T02:36:24;20.00;1.00
16038;DHT22;8123;50.906;6.172;2023-06-22T02:38:50;20.10;1.00
16038;DHT22;8123;50.906;6.172;2023-06-22T02:41:16;20.10;1.00
16038;DHT22;8123;50.906;6.172;2023-06-22T02:43:45;20.10;1.00
16038;DHT22;8123;50.906;6.172;2023-06-22T02:46:12;20.00;1.00
16038;DHT22;8123;50.906;6.172;2023-06-22T02:48:39;20.00;1.00
16038;DHT22;8123;50.906;6.172;2023-06-22T02:51:05;20.00;1.00
16038;DHT22;8123;50.906;6.172;2023-06-22T02:53:31;20.10;1.00
16038;DHT22;8123;50.906;6.172;2023-06-22T02:55:57;20.00;1.00
16038;DHT22;8123;50.906;6.172;2023-06-22T02:58:23;20.00;1.00
16038;DHT22;8123;50.906;6.172;2023-06-22T03:00:49;20.00;1.00
16038;DHT22;8123;50.906;6.172;2023-06-22T03:03:19;20.00;1.00
16038;DHT22;8123;50.906;6.172;2023-06-22T03:05:44;20.10;1.00
16038;DHT22;8123;50.906;6.172;2023-06-22T03:08:10;20.10;1.00
16038;DHT22;8123;50.906;6.172;2023-06-22T03:10:36;20.10;1.00
16038;DHT22;8123;50.906;6.172;2023-06-22T03:13:02;20.20;1.00
16038;DHT22;8123;50.906;6.172;2023-06-22T03:15:27;20.10;1.00
16038;DHT22;8123;50.906;6.172;2023-06-22T03:17:55;20.00;1.00
16038;DHT22;8123;50.906;6.172;2023-06-22T03:20:20;20.10;1.00
16038;DHT22;8123;50.906;6.172;2023-06-22T03:22:46;20.00;1.00
16038;DHT22;8123;50.906;6.172;2023-06-22T03:25:14;20.00;1.00
16038;DHT22;8123;50.906;6.172;2023-06-22T03:27:40;20.00;1.00
16038;DHT22;8123;50.906;6.172;2023-06-22T03:30:08;20.00;1.00
16038;DHT22;8123;50.906;6.172;2023-06-22T03:32:34;20.00;1.00
16038;DHT22;8123;50.906;6.172;2023-06-22T03:34:59;19.90;1.00
16038;DHT22;8123;50.906;6.172;2023-06-22T03:37:26;20.00;1.00
16038;DHT22;8123;50.906;6.172;2023-06-22T03:39:52;20.00;1.00
16038;DHT22;8123;50.906;6.172;2023-06-22T03:42:17;20.10;1.00
16038;DHT22;8123;50.906;6.172;2023-06-22T03:44:43;20.00;1.00
16038;DHT22;8123;50.906;6.172;2023-06-22T03:47:09;20.10;1.00
16038;DHT22;8123;50.906;6.172;2023-06-22T03:49:35;20.00;1.00
16038;DHT22;8123;50.906;6.172;2023-06-22T03:52:02;20.00;1.00
16038;DHT22;8123;50.906;6.172;2023-06-22T03:54:29;20.00;1.00
16038;DHT22;8123;50.906;6.172;2023-06-22T03:56:56;20.00;1.00
16038;DHT22;8123;50.906;6.172;2023-06-22T03:59:21;20.10;1.00
16038;DHT22;8123;50.906;6.172;2023-06-22T04:01:47;20.00;1.00
16038;DHT22;8123;50.906;6.172;2023-06-22T04:04:13;20.00;1.00
16038;DHT22;8123;50.906;6.172;2023-06-22T04:06:39;20.10;1.00
16038;DHT22;8123;50.906;6.172;2023-06-22T04:09:06;20.10;1.00
16038;DHT22;8123;50.906;6.172;2023-06-22T04:11:31;20.10;1.00
16038;DHT22;8123;50.906;6.172;2023-06-22T04:13:57;20.10;1.00
16038;DHT22;8123;50.906;6.172;2023-06-22T04:16:22;20.10;1.00
16038;DHT22;8123;50.906;6.172;2023-06-22T04:18:48;20.10;1.00
16038;DHT22;8123;50.906;6.172;2023-06-22T04:21:14;20.10;1.00
16038;DHT22;8123;50.906;6.172;2023-06-22T04:23:39;20.10;1.00
16038;DHT22;8123;50.906;6.172;2023-06-22T04:26:05;20.00;1.00
16038;DHT22;8123;50.906;6.172;2023-06-22T04:28:31;20.20;1.00
16038;DHT22;8123;50.906;6.172;2023-06-22T04:31:01;20.10;1.00
16038;DHT22;8123;50.906;6.172;2023-06-22T04:33:28;20.10;1.00
16038;DHT22;8123;50.906;6.172;2023-06-22T04:35:55;20.10;1.00
16038;DHT22;8123;50.906;6.172;2023-06-22T04:38:22;20.10;1.00
16038;DHT22;8123;50.906;6.172;2023-06-22T04:40:49;20.10;1.00
16038;DHT22;8123;50.906;6.172;2023-06-22T04:43:14;20.20;1.00
16038;DHT22;8123;50.906;6.172;2023-06-22T04:45:40;20.40;1.00
16038;DHT22;8123;50.906;6.172;2023-06-22T04:48:06;20.40;1.00
16038;DHT22;8123;50.906;6.172;2023-06-22T04:50:32;20.40;1.00
16038;DHT22;8123;50.906;6.172;2023-06-22T04:52:57;20.40;1.00
16038;DHT22;8123;50.906;6.172;2023-06-22T04:55:23;20.40;1.00
16038;DHT22;8123;50.906;6.172;2023-06-22T04:57:51;20.30;1.00
16038;DHT22;8123;50.906;6.172;2023-06-22T05:00:18;20.40;1.00
16038;DHT22;8123;50.906;6.172;2023-06-22T05:02:45;20.50;1.00
16038;DHT22;8123;50.906;6.172;2023-06-22T05:05:12;20.50;1.00
16038;DHT22;8123;50.906;6.172;2023-06-22T05:07:50;20.50;1.00
16038;DHT22;8123;50.906;6.172;2023-06-22T05:10:19;20.50;1.00
16038;DHT22;8123;50.906;6.172;2023-06-22T05:12:45;20.50;1.00
16038;DHT22;8123;50.906;6.172;2023-06-22T05:15:11;20.60;1.00
16038;DHT22;8123;50.906;6.172;2023-06-22T05:17:37;20.70;1.00
16038;DHT22;8123;50.906;6.172;2023-06-22T05:20:11;20.60;1.00
16038;DHT22;8123;50.906;6.172;2023-06-22T05:22:38;20.70;1.00
16038;DHT22;8123;50.906;6.172;2023-06-22T05:25:07;20.70;1.00
16038;DHT22;8123;50.906;6.172;2023-06-22T05:27:33;20.70;1.00
16038;DHT22;8123;50.906;6.172;2023-06-22T05:29:58;20.70;1.00
16038;DHT22;8123;50.906;6.172;2023-06-22T05:32:24;20.80;1.00
16038;DHT22;8123;50.906;6.172;2023-06-22T05:34:50;20.70;1.00
16038;DHT22;8123;50.906;6.172;2023-06-22T05:37:15;20.80;1.00
16038;DHT22;8123;50.906;6.172;2023-06-22T05:39:41;20.80;1.00
16038;DHT22;8123;50.906;6.172;2023-06-22T05:42:07;20.60;1.00
16038;DHT22;8123;50.906;6.172;2023-06-22T05:44:33;20.60;1.00
16038;DHT22;8123;50.906;6.172;2023-06-22T05:46:59;20.70;1.00
16038;DHT22;8123;50.906;6.172;2023-06-22T05:49:25;20.70;1.00
16038;DHT22;8123;50.906;6.172;2023-06-22T05:51:55;20.60;1.00
16038;DHT22;8123;50.906;6.172;2023-06-22T05:54:21;20.70;1.00
16038;DHT22;8123;50.906;6.172;2023-06-22T05:56:47;20.70;1.00
16038;DHT22;8123;50.906;6.172;2023-06-22T05:59:12;20.70;1.00
16038;DHT22;8123;50.906;6.172;2023-06-22T06:01:38;20.70;1.00
16038;DHT22;8123;50.906;6.172;2023-06-22T06:04:05;20.70;1.00
16038;DHT22;8123;50.906;6.172;2023-06-22T06:06:33;20.80;1.00
16038;DHT22;8123;50.906;6.172;2023-06-22T06:09:00;20.80;1.00
16038;DHT22;8123;50.906;6.172;2023-06-22T06:11:26;20.80;1.00
16038;DHT22;8123;50.906;6.172;2023-06-22T06:13:52;20.80;1.00
16038;DHT22;8123;50.906;6.172;2023-06-22T06:16:17;20.80;1.00
16038;DHT22;8123;50.906;6.172;2023-06-22T06:18:43;20.90;1.00
16038;DHT22;8123;50.906;6.172;2023-06-22T06:21:08;20.90;1.00
16038;DHT22;8123;50.906;6.172;2023-06-22T06:23:34;21.00;1.00
16038;DHT22;8123;50.906;6.172;2023-06-22T06:26:00;21.00;1.00
16038;DHT22;8123;50.906;6.172;2023-06-22T06:28:26;20.90;1.00
16038;DHT22;8123;50.906;6.172;2023-06-22T06:30:52;21.00;1.00
16038;DHT22;8123;50.906;6.172;2023-06-22T06:33:18;21.00;1.00
16038;DHT22;8123;50.906;6.172;2023-06-22T06:35:44;21.10;1.00
16038;DHT22;8123;50.906;6.172;2023-06-22T06:38:10;21.10;1.00
16038;DHT22;8123;50.906;6.172;2023-06-22T06:40:36;21.10;1.00
16038;DHT22;8123;50.906;6.172;2023-06-22T06:43:01;21.00;1.00
16038;DHT22;8123;50.906;6.172;2023-06-22T06:45:27;21.30;1.00
16038;DHT22;8123;50.906;6.172;2023-06-22T06:47:54;21.20;1.00
16038;DHT22;8123;50.906;6.172;2023-06-22T06:50:19;21.30;1.00
16038;DHT22;8123;50.906;6.172;2023-06-22T06:52:45;21.30;1.00
16038;DHT22;8123;50.906;6.172;2023-06-22T06:55:11;21.50;1.00
16038;DHT22;8123;50.906;6.172;2023-06-22T06:57:40;21.60;1.00
16038;DHT22;8123;50.906;6.172;2023-06-22T07:00:08;21.80;1.00
16038;DHT22;8123;50.906;6.172;2023-06-22T07:02:42;21.90;1.00
16038;DHT22;8123;50.906;6.172;2023-06-22T07:05:08;22.00;99.90
16038;DHT22;8123;50.906;6.172;2023-06-22T07:07:34;22.00;99.90
16038;DHT22;8123;50.906;6.172;2023-06-22T07:10:00;22.10;99.90
16038;DHT22;8123;50.906;6.172;2023-06-22T07:12:26;22.20;99.90
16038;DHT22;8123;50.906;6.172;2023-06-22T07:14:52;22.10;99.90
16038;DHT22;8123;50.906;6.172;2023-06-22T07:17:18;22.10;99.90
16038;DHT22;8123;50.906;6.172;2023-06-22T07:19:44;22.00;99.90
16038;DHT22;8123;50.906;6.172;2023-06-22T07:22:09;22.00;1.00
16038;DHT22;8123;50.906;6.172;2023-06-22T07:24:35;22.00;99.90
16038;DHT22;8123;50.906;6.172;2023-06-22T07:27:01;22.10;99.90
16038;DHT22;8123;50.906;6.172;2023-06-22T07:29:27;22.20;99.90
16038;DHT22;8123;50.906;6.172;2023-06-22T07:31:53;22.30;99.90
16038;DHT22;8123;50.906;6.172;2023-06-22T07:34:19;22.40;99.90
16038;DHT22;8123;50.906;6.172;2023-06-22T07:36:45;22.40;99.90
16038;DHT22;8123;50.906;6.172;2023-06-22T07:39:11;22.50;99.90
16038;DHT22;8123;50.906;6.172;2023-06-22T07:41:39;22.60;99.90
16038;DHT22;8123;50.906;6.172;2023-06-22T07:44:05;22.80;1.00
16038;DHT22;8123;50.906;6.172;2023-06-22T07:46:31;22.80;99.90
16038;DHT22;8123;50.906;6.172;2023-06-22T07:48:57;22.90;99.90
16038;DHT22;8123;50.906;6.172;2023-06-22T07:51:23;23.00;99.90
16038;DHT22;8123;50.906;6.172;2023-06-22T07:53:49;23.10;1.00
16038;DHT22;8123;50.906;6.172;2023-06-22T07:56:15;23.10;1.00
16038;DHT22;8123;50.906;6.172;2023-06-22T07:58:45;23.20;1.00
16038;DHT22;8123;50.906;6.172;2023-06-22T08:01:12;23.10;1.00
16038;DHT22;8123;50.906;6.172;2023-06-22T08:03:37;23.10;5.50
16038;DHT22;8123;50.906;6.172;2023-06-22T08:06:03;23.10;1.00
16038;DHT22;8123;50.906;6.172;2023-06-22T08:08:29;23.30;1.00
16038;DHT22;8123;50.906;6.172;2023-06-22T08:10:55;23.30;99.90
16038;DHT22;8123;50.906;6.172;2023-06-22T08:13:21;23.20;1.00
16038;DHT22;8123;50.906;6.172;2023-06-22T08:15:47;23.30;99.90
16038;DHT22;8123;50.906;6.172;2023-06-22T08:18:13;23.40;1.00
16038;DHT22;8123;50.906;6.172;2023-06-22T08:20:38;23.60;99.90
16038;DHT22;8123;50.906;6.172;2023-06-22T08:23:04;23.70;99.90
16038;DHT22;8123;50.906;6.172;2023-06-22T08:25:34;23.70;1.00
16038;DHT22;8123;50.906;6.172;2023-06-22T08:28:01;23.80;1.00
16038;DHT22;8123;50.906;6.172;2023-06-22T08:30:27;23.90;1.00
16038;DHT22;8123;50.906;6.172;2023-06-22T08:32:53;24.10;1.00
16038;DHT22;8123;50.906;6.172;2023-06-22T08:35:20;24.20;99.90
16038;DHT22;8123;50.906;6.172;2023-06-22T08:37:46;24.20;99.90
16038;DHT22;8123;50.906;6.172;2023-06-22T08:40:18;24.40;99.90
16038;DHT22;8123;50.906;6.172;2023-06-22T08:42:46;24.50;99.90
16038;DHT22;8123;50.906;6.172;2023-06-22T08:45:12;24.70;15.80
16038;DHT22;8123;50.906;6.172;2023-06-22T08:47:39;24.60;99.90
16038;DHT22;8123;50.906;6.172;2023-06-22T08:50:05;24.70;99.90
16038;DHT22;8123;50.906;6.172;2023-06-22T08:52:32;24.90;1.00
16038;DHT22;8123;50.906;6.172;2023-06-22T08:54:57;24.80;99.90
16038;DHT22;8123;50.906;6.172;2023-06-22T08:57:26;25.00;99.90
16038;DHT22;8123;50.906;6.172;2023-06-22T08:59:52;25.10;1.00
16038;DHT22;8123;50.906;6.172;2023-06-22T09:02:18;25.10;1.00
16038;DHT22;8123;50.906;6.172;2023-06-22T09:04:46;25.00;1.00
16038;DHT22;8123;50.906;6.172;2023-06-22T09:07:11;25.10;1.00
16038;DHT22;8123;50.906;6.172;2023-06-22T09:09:37;25.00;1.00
16038;DHT22;8123;50.906;6.172;2023-06-22T09:12:03;25.00;99.90
16038;DHT22;8123;50.906;6.172;2023-06-22T09:14:29;25.00;99.90
16038;DHT22;8123;50.906;6.172;2023-06-22T09:16:54;24.80;99.90
16038;DHT22;8123;50.906;6.172;2023-06-22T09:19:20;24.70;99.90
16038;DHT22;8123;50.906;6.172;2023-06-22T09:21:45;24.80;99.90
16038;DHT22;8123;50.906;6.172;2023-06-22T09:24:11;24.90;1.00
16038;DHT22;8123;50.906;6.172;2023-06-22T09:26:37;24.70;24.20
16038;DHT22;8123;50.906;6.172;2023-06-22T09:29:05;24.80;99.90
16038;DHT22;8123;50.906;6.172;2023-06-22T09:31:31;25.00;99.90
16038;DHT22;8123;50.906;6.172;2023-06-22T09:33:57;25.10;95.20
16038;DHT22;8123;50.906;6.172;2023-06-22T09:39:52;25.30;99.90
16038;DHT22;8123;50.906;6.172;2023-06-22T09:42:44;25.30;99.90
16038;DHT22;8123;50.906;6.172;2023-06-22T09:45:40;25.20;99.90
16038;DHT22;8123;50.906;6.172;2023-06-22T09:52:32;24.90;1.00
16038;DHT22;8123;50.906;6.172;2023-06-22T09:55:01;24.60;99.90
16038;DHT22;8123;50.906;6.172;2023-06-22T09:57:33;24.50;99.90
16038;DHT22;8123;50.906;6.172;2023-06-22T10:00:23;24.50;35.90
16038;DHT22;8123;50.906;6.172;2023-06-22T10:03:24;24.50;1.00
16038;DHT22;8123;50.906;6.172;2023-06-22T10:05:49;24.40;99.90
16038;DHT22;8123;50.906;6.172;2023-06-22T10:08:15;24.40;1.00
16038;DHT22;8123;50.906;6.172;2023-06-22T10:10:41;24.50;99.90
16038;DHT22;8123;50.906;6.172;2023-06-22T10:13:10;24.40;1.00
16038;DHT22;8123;50.906;6.172;2023-06-22T10:15:38;24.40;1.00
16038;DHT22;8123;50.906;6.172;2023-06-22T10:18:04;24.40;1.00
16038;DHT22;8123;50.906;6.172;2023-06-22T10:20:30;24.30;1.00
16038;DHT22;8123;50.906;6.172;2023-06-22T10:22:55;24.20;1.00
16038;DHT22;8123;50.906;6.172;2023-06-22T10:25:24;24.10;99.90
16038;DHT22;8123;50.906;6.172;2023-06-22T10:27:53;24.00;52.20
16038;DHT22;8123;50.906;6.172;2023-06-22T10:30:18;23.80;99.90
16038;DHT22;8123;50.906;6.172;2023-06-22T10:32:46;23.70;99.90
16038;DHT22;8123;50.906;6.172;2023-06-22T10:35:12;23.60;99.90
16038;DHT22;8123;50.906;6.172;2023-06-22T10:37:44;23.50;99.90
16038;DHT22;8123;50.906;6.172;2023-06-22T10:40:15;23.50;99.90
16038;DHT22;8123;50.906;6.172;2023-06-22T10:42:41;23.30;99.90
16038;DHT22;8123;50.906;6.172;2023-06-22T10:45:07;23.30;99.90
16038;DHT22;8123;50.906;6.172;2023-06-22T10:47:33;23.20;99.90
16038;DHT22;8123;50.906;6.172;2023-06-22T10:49:59;23.00;99.90
16038;DHT22;8123;50.906;6.172;2023-06-22T10:52:25;22.90;99.90
16038;DHT22;8123;50.906;6.172;2023-06-22T10:54:50;22.80;99.90
16038;DHT22;8123;50.906;6.172;2023-06-22T10:57:17;22.60;99.90
16038;DHT22;8123;50.906;6.172;2023-06-22T10:59:43;22.60;99.90
16038;DHT22;8123;50.906;6.172;2023-06-22T11:02:08;22.60;99.90
16038;DHT22;8123;50.906;6.172;2023-06-22T11:04:34;22.60;99.90
16038;DHT22;8123;50.906;6.172;2023-06-22T11:07:00;22.70;99.90
16038;DHT22;8123;50.906;6.172;2023-06-22T11:09:25;22.80;99.90
16038;DHT22;8123;50.906;6.172;2023-06-22T11:11:52;22.90;99.90
16038;DHT22;8123;50.906;6.172;2023-06-22T11:14:21;22.90;99.90
16038;DHT22;8123;50.906;6.172;2023-06-22T11:16:47;23.00;99.90
16038;DHT22;8123;50.906;6.172;2023-06-22T11:19:13;23.10;99.90
16038;DHT22;8123;50.906;6.172;2023-06-22T11:21:39;23.20;99.90
16038;DHT22;8123;50.906;6.172;2023-06-22T11:24:05;23.20;99.90
16038;DHT22;8123;50.906;6.172;2023-06-22T11:26:30;23.30;99.90
16038;DHT22;8123;50.906;6.172;2023-06-22T11:28:57;23.50;99.90
16038;DHT22;8123;50.906;6.172;2023-06-22T11:31:23;23.70;99.90
16038;DHT22;8123;50.906;6.172;2023-06-22T11:33:48;23.70;99.90
16038;DHT22;8123;50.906;6.172;2023-06-22T11:36:14;23.80;99.90
16038;DHT22;8123;50.906;6.172;2023-06-22T11:38:41;23.80;99.90
16038;DHT22;8123;50.906;6.172;2023-06-22T11:41:07;23.90;99.90
16038;DHT22;8123;50.906;6.172;2023-06-22T11:43:33;23.90;99.90
16038;DHT22;8123;50.906;6.172;2023-06-22T11:45:59;24.10;99.90
16038;DHT22;8123;50.906;6.172;2023-06-22T11:48:26;24.20;99.90
16038;DHT22;8123;50.906;6.172;2023-06-22T11:50:52;24.30;99.90
16038;DHT22;8123;50.906;6.172;2023-06-22T11:53:17;24.30;99.90
16038;DHT22;8123;50.906;6.172;2023-06-22T11:55:44;24.40;99.90
16038;DHT22;8123;50.906;6.172;2023-06-22T11:58:10;24.20;99.90
16038;DHT22;8123;50.906;6.172;2023-06-22T12:00:37;24.20;99.90
16038;DHT22;8123;50.906;6.172;2023-06-22T12:03:03;24.40;99.90
16038;DHT22;8123;50.906;6.172;2023-06-22T12:05:29;24.10;99.90
16038;DHT22;8123;50.906;6.172;2023-06-22T12:07:54;24.30;99.90
16038;DHT22;8123;50.906;6.172;2023-06-22T12:10:22;24.10;99.90
16038;DHT22;8123;50.906;6.172;2023-06-22T12:12:47;24.10;99.90
16038;DHT22;8123;50.906;6.172;2023-06-22T12:15:13;24.10;99.90
16038;DHT22;8123;50.906;6.172;2023-06-22T12:17:40;24.00;99.90
16038;DHT22;8123;50.906;6.172;2023-06-22T12:20:06;24.00;99.90
16038;DHT22;8123;50.906;6.172;2023-06-22T12:22:33;24.10;99.90
16038;DHT22;8123;50.906;6.172;2023-06-22T12:24:59;24.10;99.90
16038;DHT22;8123;50.906;6.172;2023-06-22T12:27:25;24.00;99.90
16038;DHT22;8123;50.906;6.172;2023-06-22T12:29:51;23.80;99.90
16038;DHT22;8123;50.906;6.172;2023-06-22T12:32:16;23.90;99.90
16038;DHT22;8123;50.906;6.172;2023-06-22T12:34:42;23.70;99.90
16038;DHT22;8123;50.906;6.172;2023-06-22T12:37:08;23.70;99.90
16038;DHT22;8123;50.906;6.172;2023-06-22T12:39:34;23.90;99.90
16038;DHT22;8123;50.906;6.172;2023-06-22T12:42:00;24.00;99.90
16038;DHT22;8123;50.906;6.172;2023-06-22T12:44:26;24.00;99.90
16038;DHT22;8123;50.906;6.172;2023-06-22T12:46:51;24.10;99.90
16038;DHT22;8123;50.906;6.172;2023-06-22T12:49:17;24.20;99.90
16038;DHT22;8123;50.906;6.172;2023-06-22T12:51:43;24.10;99.90
16038;DHT22;8123;50.906;6.172;2023-06-22T12:54:09;24.00;99.90
16038;DHT22;8123;50.906;6.172;2023-06-22T12:56:35;23.90;99.90
16038;DHT22;8123;50.906;6.172;2023-06-22T12:59:01;23.90;99.90
16038;DHT22;8123;50.906;6.172;2023-06-22T13:01:27;23.90;99.90
16038;DHT22;8123;50.906;6.172;2023-06-22T13:03:53;24.00;99.90
16038;DHT22;8123;50.906;6.172;2023-06-22T13:06:19;24.00;99.90
16038;DHT22;8123;50.906;6.172;2023-06-22T13:08:45;24.00;99.90
16038;DHT22;8123;50.906;6.172;2023-06-22T13:11:11;24.00;99.90
16038;DHT22;8123;50.906;6.172;2023-06-22T13:13:38;24.00;99.90
16038;DHT22;8123;50.906;6.172;2023-06-22T13:16:03;24.00;99.90
16038;DHT22;8123;50.906;6.172;2023-06-22T13:18:29;23.80;99.90
16038;DHT22;8123;50.906;6.172;2023-06-22T13:20:55;23.70;99.90
16038;DHT22;8123;50.906;6.172;2023-06-22T13:23:21;23.70;99.90
16038;DHT22;8123;50.906;6.172;2023-06-22T13:25:47;23.70;99.90
16038;DHT22;8123;50.906;6.172;2023-06-22T13:28:13;23.50;99.90
16038;DHT22;8123;50.906;6.172;2023-06-22T13:30:40;23.40;99.90
16038;DHT22;8123;50.906;6.172;2023-06-22T13:33:06;23.40;99.90
16038;DHT22;8123;50.906;6.172;2023-06-22T13:35:31;23.30;99.90
16038;DHT22;8123;50.906;6.172;2023-06-22T13:37:57;23.10;99.90
16038;DHT22;8123;50.906;6.172;2023-06-22T13:40:23;23.10;99.90
16038;DHT22;8123;50.906;6.172;2023-06-22T13:42:48;23.20;99.90
16038;DHT22;8123;50.906;6.172;2023-06-22T13:45:14;23.20;99.90
16038;DHT22;8123;50.906;6.172;2023-06-22T13:47:42;23.10;99.90
16038;DHT22;8123;50.906;6.172;2023-06-22T13:50:08;23.00;99.90
16038;DHT22;8123;50.906;6.172;2023-06-22T13:52:34;23.10;99.90
16038;DHT22;8123;50.906;6.172;2023-06-22T13:55:00;23.00;99.90
16038;DHT22;8123;50.906;6.172;2023-06-22T13:57:26;22.90;99.90
16038;DHT22;8123;50.906;6.172;2023-06-22T13:59:52;22.90;99.90
16038;DHT22;8123;50.906;6.172;2023-06-22T14:02:18;22.90;99.90
16038;DHT22;8123;50.906;6.172;2023-06-22T14:04:44;22.80;99.90
16038;DHT22;8123;50.906;6.172;2023-06-22T14:07:09;22.50;99.90
16038;DHT22;8123;50.906;6.172;2023-06-22T14:09:35;22.40;99.90
16038;DHT22;8123;50.906;6.172;2023-06-22T14:12:05;22.30;99.90
16038;DHT22;8123;50.906;6.172;2023-06-22T14:14:32;22.30;99.90
16038;DHT22;8123;50.906;6.172;2023-06-22T14:16:58;22.20;99.90
16038;DHT22;8123;50.906;6.172;2023-06-22T14:19:24;22.20;99.90
16038;DHT22;8123;50.906;6.172;2023-06-22T14:21:50;22.10;99.90
16038;DHT22;8123;50.906;6.172;2023-06-22T14:24:16;22.10;99.90
16038;DHT22;8123;50.906;6.172;2023-06-22T14:26:41;22.10;99.90
16038;DHT22;8123;50.906;6.172;2023-06-22T14:29:07;22.10;99.90
16038;DHT22;8123;50.906;6.172;2023-06-22T14:31:32;22.10;99.90
16038;DHT22;8123;50.906;6.172;2023-06-22T14:33:58;22.00;99.90
16038;DHT22;8123;50.906;6.172;2023-06-22T14:36:24;22.00;99.90
16038;DHT22;8123;50.906;6.172;2023-06-22T14:38:49;22.00;99.90
16038;DHT22;8123;50.906;6.172;2023-06-22T14:41:15;22.00;99.90
16038;DHT22;8123;50.906;6.172;2023-06-22T14:43:46;22.00;99.90
16038;DHT22;8123;50.906;6.172;2023-06-22T14:46:17;22.00;99.90
16038;DHT22;8123;50.906;6.172;2023-06-22T14:48:42;22.00;99.90
16038;DHT22;8123;50.906;6.172;2023-06-22T14:51:09;22.00;99.90
16038;DHT22;8123;50.906;6.172;2023-06-22T14:53:35;21.90;99.90
16038;DHT22;8123;50.906;6.172;2023-06-22T14:56:01;21.90;99.90
16038;DHT22;8123;50.906;6.172;2023-06-22T14:58:28;21.80;99.90
16038;DHT22;8123;50.906;6.172;2023-06-22T15:00:55;21.80;99.90
16038;DHT22;8123;50.906;6.172;2023-06-22T15:03:20;21.80;99.90
16038;DHT22;8123;50.906;6.172;2023-06-22T15:05:51;21.70;99.90
16038;DHT22;8123;50.906;6.172;2023-06-22T15:08:16;21.60;99.90
16038;DHT22;8123;50.906;6.172;2023-06-22T15:10:42;21.40;99.90
16038;DHT22;8123;50.906;6.172;2023-06-22T15:13:08;21.30;99.90
16038;DHT22;8123;50.906;6.172;2023-06-22T15:15:33;21.10;99.90
16038;DHT22;8123;50.906;6.172;2023-06-22T15:17:59;20.90;99.90
16038;DHT22;8123;50.906;6.172;2023-06-22T15:20:25;20.70;99.90
16038;DHT22;8123;50.906;6.172;2023-06-22T15:22:50;20.60;99.90
16038;DHT22;8123;50.906;6.172;2023-06-22T15:25:16;20.10;99.90
16038;DHT22;8123;50.906;6.172;2023-06-22T15:27:41;20.30;99.90
16038;DHT22;8123;50.906;6.172;2023-06-22T15:30:07;20.20;99.90
16038;DHT22;8123;50.906;6.172;2023-06-22T15:32:33;20.00;99.90
16038;DHT22;8123;50.906;6.172;2023-06-22T15:34:59;19.70;99.90
16038;DHT22;8123;50.906;6.172;2023-06-22T15:37:24;19.50;99.90
16038;DHT22;8123;50.906;6.172;2023-06-22T15:39:50;19.40;99.90
16038;DHT22;8123;50.906;6.172;2023-06-22T15:42:16;19.20;99.90
16038;DHT22;8123;50.906;6.172;2023-06-22T15:44:41;19.20;99.90
16038;DHT22;8123;50.906;6.172;2023-06-22T15:47:07;19.30;99.90
16038;DHT22;8123;50.906;6.172;2023-06-22T15:49:33;19.30;99.90
16038;DHT22;8123;50.906;6.172;2023-06-22T15:51:58;19.20;99.90
16038;DHT22;8123;50.906;6.172;2023-06-22T15:54:24;19.20;99.90
16038;DHT22;8123;50.906;6.172;2023-06-22T15:56:49;19.20;99.90
16038;DHT22;8123;50.906;6.172;2023-06-22T15:59:15;19.20;99.90
16038;DHT22;8123;50.906;6.172;2023-06-22T16:01:40;19.10;99.90
16038;DHT22;8123;50.906;6.172;2023-06-22T16:04:06;19.20;99.90
16038;DHT22;8123;50.906;6.172;2023-06-22T16:06:32;19.20;99.90